createdAt,value
2019-06-27T00:00:16.952Z,25.90
2019-06-27T00:02:46.224Z,25.90
2019-06-27T00:05:15.721Z,25.90
2019-06-27T00:07:44.918Z,25.80
2019-06-27T00:10:14.155Z,25.70
2019-06-27T00:12:43.250Z,25.70
2019-06-27T00:15:12.403Z,25.70
2019-06-27T00:17:41.632Z,25.60
2019-06-27T00:20:10.933Z,25.50
2019-06-27T00:22:41.250Z,25.40
2019-06-27T00:25:10.697Z,25.40
2019-06-27T00:27:39.766Z,25.30
2019-06-27T00:30:09.401Z,25.20
2019-06-27T00:32:38.415Z,25.10
2019-06-27T00:35:09.388Z,25.00
2019-06-27T00:37:38.491Z,25.00
2019-06-27T00:40:07.896Z,24.90
2019-06-27T00:42:36.972Z,24.90
2019-06-27T00:45:06.804Z,24.80
2019-06-27T00:47:35.803Z,24.70
2019-06-27T00:50:05.725Z,24.60
2019-06-27T00:52:34.809Z,24.50
2019-06-27T00:55:04.167Z,24.40
2019-06-27T00:57:33.294Z,24.30
2019-06-27T01:00:02.487Z,24.30
2019-06-27T01:02:31.586Z,24.20
2019-06-27T01:05:00.632Z,24.20
2019-06-27T01:07:29.805Z,24.20
2019-06-27T01:10:01.141Z,24.10
2019-06-27T01:12:29.688Z,24.10
2019-06-27T01:14:58.866Z,24.00
2019-06-27T01:17:27.978Z,24.00
2019-06-27T01:19:57.228Z,23.90
2019-06-27T01:22:29.436Z,23.90
2019-06-27T01:24:58.431Z,23.80
2019-06-27T01:27:30.338Z,23.70
2019-06-27T01:29:58.206Z,23.60
2019-06-27T01:32:27.413Z,23.40
2019-06-27T01:34:56.807Z,23.40
2019-06-27T01:37:25.996Z,23.30
2019-06-27T01:39:55.064Z,23.20
2019-06-27T01:42:24.124Z,23.10
2019-06-27T01:45:03.376Z,23.00
2019-06-27T01:47:32.480Z,22.90
2019-06-27T01:50:01.924Z,22.80
2019-06-27T01:52:31.106Z,22.70
2019-06-27T01:55:00.220Z,22.60
2019-06-27T01:57:42.426Z,22.60
2019-06-27T02:00:00.040Z,22.50
2019-06-27T02:02:29.636Z,22.40
2019-06-27T02:04:58.716Z,22.30
2019-06-27T02:07:27.811Z,22.20
2019-06-27T02:09:56.978Z,22.10
2019-06-27T02:12:26.364Z,22.10
2019-06-27T02:14:55.840Z,22.00
2019-06-27T02:17:24.925Z,21.90
2019-06-27T02:19:54.071Z,21.80
2019-06-27T02:22:23.253Z,21.80
2019-06-27T02:24:52.338Z,21.70
2019-06-27T02:27:21.514Z,21.60
2019-06-27T02:29:50.526Z,21.50
2019-06-27T02:32:19.649Z,21.50
2019-06-27T02:34:48.731Z,21.40
2019-06-27T02:37:17.880Z,21.30
2019-06-27T02:39:46.981Z,21.20
2019-06-27T02:42:16.131Z,21.10
2019-06-27T02:44:45.231Z,21.10
2019-06-27T02:47:14.711Z,21.00
2019-06-27T02:49:43.859Z,21.00
2019-06-27T02:52:13.080Z,20.90
2019-06-27T02:54:42.257Z,20.90
2019-06-27T02:57:11.698Z,20.80
2019-06-27T02:59:40.889Z,20.80
2019-06-27T03:02:10.035Z,20.70
2019-06-27T03:04:39.177Z,20.70
2019-06-27T03:07:08.262Z,20.70
2019-06-27T03:09:37.351Z,20.70
2019-06-27T03:12:06.515Z,20.60
2019-06-27T03:14:35.721Z,20.60
2019-06-27T03:17:04.819Z,20.60
2019-06-27T03:19:34.003Z,20.50
2019-06-27T03:22:05.812Z,20.50
2019-06-27T03:24:33.909Z,20.50
2019-06-27T03:27:03.106Z,20.50
2019-06-27T03:29:32.269Z,20.40
2019-06-27T03:32:01.360Z,20.40
2019-06-27T03:34:30.500Z,20.40
2019-06-27T03:36:59.677Z,20.40
2019-06-27T03:39:28.783Z,20.40
2019-06-27T03:41:57.908Z,20.30
2019-06-27T03:44:27.006Z,20.30
2019-06-27T03:46:56.122Z,20.20
2019-06-27T03:49:25.241Z,20.20
2019-06-27T03:51:54.470Z,20.20
2019-06-27T03:54:23.581Z,20.10
2019-06-27T03:56:52.775Z,20.10
2019-06-27T03:59:21.867Z,20.10
2019-06-27T04:01:50.999Z,20.10
2019-06-27T04:04:20.149Z,20.10
2019-06-27T04:06:49.256Z,20.10
2019-06-27T04:09:18.438Z,20.10
2019-06-27T04:11:47.531Z,20.10
2019-06-27T04:14:16.634Z,20.10
2019-06-27T04:16:48.936Z,20.10
2019-06-27T04:19:16.467Z,20.10
2019-06-27T04:21:45.571Z,20.10
2019-06-27T04:24:14.617Z,20.00
2019-06-27T04:26:43.766Z,20.00
2019-06-27T04:29:31.815Z,19.90
2019-06-27T04:31:43.950Z,19.90
2019-06-27T04:34:13.020Z,19.90
2019-06-27T04:36:42.202Z,20.00
2019-06-27T04:39:11.538Z,20.00
2019-06-27T04:41:40.649Z,20.20
2019-06-27T04:44:09.739Z,20.60
2019-06-27T04:46:38.900Z,21.10
2019-06-27T04:49:12.938Z,21.30
2019-06-27T04:51:38.735Z,22.30
2019-06-27T04:54:07.849Z,23.80
2019-06-27T04:56:36.959Z,25.10
2019-06-27T04:59:06.349Z,26.10
2019-06-27T05:01:35.500Z,27.00
2019-06-27T05:04:05.032Z,27.80
2019-06-27T05:06:34.197Z,28.60
2019-06-27T05:09:04.570Z,29.10
2019-06-27T05:11:33.679Z,29.80
2019-06-27T05:14:02.796Z,30.30
2019-06-27T05:16:31.883Z,30.70
2019-06-27T05:19:01.208Z,30.90
2019-06-27T05:21:30.475Z,31.10
2019-06-27T05:23:59.633Z,31.40
2019-06-27T05:26:28.867Z,31.30
2019-06-27T05:28:58.060Z,31.00
2019-06-27T05:31:27.042Z,30.80
2019-06-27T05:33:56.067Z,30.60
2019-06-27T05:36:25.112Z,30.40
2019-06-27T05:38:54.164Z,30.50
2019-06-27T05:41:23.278Z,29.90
2019-06-27T05:43:52.432Z,29.60
2019-06-27T05:46:21.481Z,30.00
2019-06-27T05:48:50.538Z,29.70
2019-06-27T05:51:20.090Z,28.70
2019-06-27T05:53:49.111Z,27.70
2019-06-27T05:56:18.563Z,27.90
2019-06-27T05:58:50.866Z,27.30
2019-06-27T06:01:18.521Z,27.70
2019-06-27T06:03:47.704Z,26.90
2019-06-27T06:06:16.856Z,26.40
2019-06-27T06:08:45.952Z,27.10
2019-06-27T06:11:15.111Z,26.70
2019-06-27T06:13:44.212Z,27.10
2019-06-27T06:16:13.232Z,27.70
2019-06-27T06:18:42.371Z,28.50
2019-06-27T06:21:11.731Z,28.50
2019-06-27T06:23:40.810Z,28.10
2019-06-27T06:26:09.971Z,27.80
2019-06-27T06:28:39.084Z,27.10
2019-06-27T06:31:08.113Z,27.90
2019-06-27T06:33:37.103Z,27.50
2019-06-27T06:36:06.291Z,27.30
2019-06-27T06:38:35.318Z,27.70
2019-06-27T06:41:04.546Z,28.00
2019-06-27T06:43:33.634Z,28.70
2019-06-27T06:46:03.212Z,28.90
2019-06-27T06:48:32.298Z,29.30
2019-06-27T06:51:01.287Z,29.70
2019-06-27T06:53:30.369Z,30.00
2019-06-27T06:55:59.422Z,30.30
2019-06-27T06:58:28.695Z,30.50
2019-06-27T07:01:02.017Z,30.60
2019-06-27T07:03:28.565Z,31.00
2019-06-27T07:05:57.712Z,31.20
2019-06-27T07:08:26.889Z,31.30
2019-06-27T07:10:55.932Z,31.40
2019-06-27T07:13:25.267Z,31.30
2019-06-27T07:15:54.429Z,31.70
2019-06-27T07:18:23.440Z,31.60
2019-06-27T07:20:52.518Z,31.50
2019-06-27T07:23:21.602Z,31.60
2019-06-27T07:25:50.716Z,31.50
2019-06-27T07:28:19.890Z,31.00
2019-06-27T07:30:49.079Z,29.80
2019-06-27T07:33:18.263Z,28.40
2019-06-27T07:35:47.452Z,27.10
2019-06-27T07:38:16.462Z,26.20
2019-06-27T07:40:45.559Z,25.40
2019-06-27T07:43:14.585Z,24.90
2019-06-27T07:45:43.634Z,24.30
2019-06-27T07:48:12.651Z,24.00
2019-06-27T07:50:41.816Z,23.80
2019-06-27T07:53:11.009Z,23.60
2019-06-27T07:55:40.354Z,23.30
2019-06-27T07:58:09.420Z,23.10
2019-06-27T08:00:38.591Z,23.00
2019-06-27T08:03:07.626Z,23.00
2019-06-27T08:05:36.755Z,22.90
2019-06-27T08:08:05.820Z,22.90
2019-06-27T08:10:34.891Z,22.90
2019-06-27T08:13:03.952Z,22.90
2019-06-27T08:15:33.459Z,23.00
2019-06-27T08:18:02.841Z,23.00
2019-06-27T08:20:32.244Z,23.00
2019-06-27T08:23:01.619Z,23.00
2019-06-27T08:25:30.705Z,23.00
2019-06-27T08:27:59.759Z,22.90
2019-06-27T08:30:29.224Z,23.00
2019-06-27T08:32:58.272Z,22.90
2019-06-27T08:35:27.665Z,22.90
2019-06-27T08:37:56.836Z,22.90
2019-06-27T08:40:25.983Z,22.90
2019-06-27T08:42:55.153Z,23.00
2019-06-27T08:45:24.331Z,23.00
2019-06-27T08:47:53.444Z,23.00
2019-06-27T08:50:22.590Z,23.10
2019-06-27T08:52:51.573Z,23.10
2019-06-27T08:55:20.686Z,23.00
2019-06-27T08:57:49.699Z,23.10
2019-06-27T09:00:18.951Z,23.10
2019-06-27T09:02:48.059Z,23.20
2019-06-27T09:05:17.240Z,23.20
2019-06-27T09:07:46.425Z,23.30
2019-06-27T09:10:15.890Z,23.30
2019-06-27T09:12:45.036Z,23.40
2019-06-27T09:15:14.748Z,23.40
2019-06-27T09:17:43.840Z,23.40
2019-06-27T09:20:13.530Z,23.40
2019-06-27T09:22:42.782Z,23.40
2019-06-27T09:25:12.020Z,23.50
2019-06-27T09:27:41.037Z,23.50
2019-06-27T09:30:11.416Z,23.50
2019-06-27T09:32:40.488Z,23.60
2019-06-27T09:35:11.007Z,23.70
2019-06-27T09:37:40.270Z,23.70
2019-06-27T09:40:11.079Z,23.80
2019-06-27T09:42:40.259Z,23.90
2019-06-27T09:45:09.989Z,23.90
2019-06-27T09:47:39.163Z,24.00
2019-06-27T09:50:09.654Z,24.00
2019-06-27T09:52:38.991Z,24.00
2019-06-27T09:55:08.703Z,24.00
2019-06-27T09:57:37.864Z,24.00
2019-06-27T10:00:07.427Z,24.10
2019-06-27T10:02:41.617Z,24.20
2019-06-27T10:05:08.012Z,24.20
2019-06-27T10:07:37.155Z,24.30
2019-06-27T10:10:06.589Z,24.30
2019-06-27T10:12:42.159Z,24.40
2019-06-27T10:15:06.994Z,24.40
2019-06-27T10:17:36.066Z,24.50
2019-06-27T10:20:06.831Z,24.50
2019-06-27T10:22:36.012Z,24.50
2019-06-27T10:25:05.674Z,24.50
2019-06-27T10:27:34.751Z,24.50
2019-06-27T10:30:04.567Z,24.60
2019-06-27T10:32:33.591Z,24.60
2019-06-27T10:35:02.769Z,24.60
2019-06-27T10:37:31.915Z,24.70
2019-06-27T10:40:00.977Z,24.70
2019-06-27T10:42:30.087Z,24.80
2019-06-27T10:44:59.117Z,24.80
2019-06-27T10:47:28.172Z,24.80
2019-06-27T10:49:57.212Z,24.80
2019-06-27T10:52:26.297Z,24.80
2019-06-27T10:54:55.385Z,24.90
2019-06-27T10:57:24.483Z,25.00
2019-06-27T10:59:53.547Z,25.10
2019-06-27T11:02:22.556Z,25.10
2019-06-27T11:04:51.668Z,25.30
2019-06-27T11:07:20.863Z,25.30
2019-06-27T11:09:50.392Z,25.40
2019-06-27T11:12:19.878Z,25.40
2019-06-27T11:14:58.696Z,25.50
2019-06-27T11:17:19.895Z,25.60
2019-06-27T11:19:52.591Z,25.60
2019-06-27T11:22:19.722Z,25.60
2019-06-27T11:24:48.715Z,25.60
2019-06-27T11:27:17.882Z,25.60
2019-06-27T11:29:47.029Z,25.60
2019-06-27T11:32:16.227Z,25.70
2019-06-27T11:34:46.136Z,25.70
2019-06-27T11:37:15.582Z,25.70
2019-06-27T11:39:44.883Z,25.80
2019-06-27T11:42:13.939Z,25.90
2019-06-27T11:44:43.041Z,25.90
2019-06-27T11:47:12.274Z,25.80
2019-06-27T11:49:41.461Z,25.90
2019-06-27T11:52:10.690Z,25.90
2019-06-27T11:54:40.576Z,25.80
2019-06-27T11:57:09.763Z,25.90
2019-06-27T11:59:39.056Z,25.90
2019-06-27T12:02:08.378Z,26.00
2019-06-27T12:04:37.629Z,26.00
2019-06-27T12:07:06.707Z,26.00
2019-06-27T12:09:35.964Z,26.10
2019-06-27T12:12:05.192Z,26.10
2019-06-27T12:14:36.457Z,26.20
2019-06-27T12:17:05.691Z,26.20
2019-06-27T12:19:35.288Z,26.20
2019-06-27T12:22:04.463Z,26.30
2019-06-27T12:24:33.596Z,26.30
2019-06-27T12:27:02.854Z,26.30
2019-06-27T12:29:31.996Z,26.30
2019-06-27T12:32:01.037Z,26.20
2019-06-27T12:34:30.745Z,26.20
2019-06-27T12:36:59.993Z,26.40
2019-06-27T12:39:29.352Z,26.40
2019-06-27T12:41:58.579Z,26.40
2019-06-27T12:44:28.283Z,26.40
2019-06-27T12:46:57.502Z,26.50
2019-06-27T12:49:44.478Z,26.60
2019-06-27T12:51:57.194Z,26.60
2019-06-27T12:54:26.204Z,26.60
2019-06-27T12:56:55.773Z,26.60
2019-06-27T12:59:25.378Z,26.70
2019-06-27T13:01:54.346Z,26.70
2019-06-27T13:04:24.305Z,26.70
2019-06-27T13:06:53.546Z,26.70
2019-06-27T13:09:22.726Z,26.70
2019-06-27T13:11:52.161Z,26.80
2019-06-27T13:14:21.416Z,26.80
2019-06-27T13:16:50.853Z,26.90
2019-06-27T13:19:20.025Z,27.00
2019-06-27T13:21:49.229Z,27.00
2019-06-27T13:24:20.108Z,27.00
2019-06-27T13:26:49.312Z,27.00
2019-06-27T13:29:18.544Z,27.00
2019-06-27T13:31:48.823Z,27.10
2019-06-27T13:34:18.058Z,27.00
2019-06-27T13:36:47.165Z,27.10
2019-06-27T13:39:16.360Z,27.10
2019-06-27T13:41:45.463Z,27.10
2019-06-27T13:44:14.748Z,27.10
2019-06-27T13:46:44.232Z,27.10
2019-06-27T13:49:13.432Z,27.10
2019-06-27T13:51:42.473Z,27.10
2019-06-27T13:54:11.583Z,27.20
2019-06-27T13:56:40.718Z,27.20
2019-06-27T13:59:09.840Z,27.20
2019-06-27T14:01:39.312Z,27.30
2019-06-27T14:04:09.133Z,27.30
2019-06-27T14:06:41.248Z,27.30
2019-06-27T14:09:21.968Z,27.30
2019-06-27T14:11:39.680Z,27.30
2019-06-27T14:14:11.415Z,27.30
2019-06-27T14:16:39.553Z,27.30
2019-06-27T14:19:08.546Z,27.30
2019-06-27T14:21:37.993Z,27.30
2019-06-27T14:24:07.196Z,27.30
2019-06-27T14:26:36.413Z,27.30
2019-06-27T14:29:06.017Z,27.40
2019-06-27T14:31:35.001Z,27.40
2019-06-27T14:34:05.275Z,27.40
2019-06-27T14:36:34.481Z,27.40
2019-06-27T14:39:04.554Z,27.40
2019-06-27T14:41:33.718Z,27.40
2019-06-27T14:44:03.667Z,27.40
2019-06-27T14:46:32.869Z,27.50
2019-06-27T14:49:01.993Z,27.50
2019-06-27T14:51:31.164Z,27.50
2019-06-27T14:54:00.189Z,27.50
2019-06-27T14:56:29.367Z,27.50
2019-06-27T14:58:58.483Z,27.50
2019-06-27T15:01:28.071Z,27.50
2019-06-27T15:03:58.160Z,27.50
2019-06-27T15:06:27.332Z,27.50
2019-06-27T15:08:56.533Z,27.40
2019-06-27T15:11:26.216Z,27.40
2019-06-27T15:13:55.434Z,27.40
2019-06-27T15:16:24.875Z,27.40
2019-06-27T15:18:54.100Z,27.40
2019-06-27T15:21:23.307Z,27.30
2019-06-27T15:23:53.704Z,27.30
2019-06-27T15:26:23.097Z,27.30
2019-06-27T15:28:52.308Z,27.30
2019-06-27T15:31:22.573Z,27.30
2019-06-27T15:33:52.248Z,27.30
2019-06-27T15:36:22.938Z,27.30
2019-06-27T15:38:52.248Z,27.30
2019-06-27T15:41:23.784Z,27.20
2019-06-27T15:43:53.069Z,27.20
2019-06-27T15:46:22.241Z,27.20
2019-06-27T15:48:51.337Z,27.10
2019-06-27T15:51:23.084Z,27.10
2019-06-27T15:53:52.510Z,27.10
2019-06-27T15:56:22.082Z,27.10
2019-06-27T15:58:51.379Z,27.10
2019-06-27T16:01:20.634Z,27.10
2019-06-27T16:03:49.817Z,27.10
2019-06-27T16:06:19.254Z,27.00
2019-06-27T16:08:48.395Z,27.00
2019-06-27T16:11:17.575Z,27.00
2019-06-27T16:13:46.565Z,26.90
2019-06-27T16:16:15.700Z,26.90
2019-06-27T16:18:45.037Z,26.90
2019-06-27T16:21:14.352Z,26.90
2019-06-27T16:23:44.073Z,26.80
2019-06-27T16:26:13.126Z,26.80
2019-06-27T16:28:42.751Z,26.70
2019-06-27T16:31:11.932Z,26.70
2019-06-27T16:33:40.962Z,26.70
2019-06-27T16:36:24.509Z,26.60
2019-06-27T16:38:41.140Z,26.60
2019-06-27T16:41:10.596Z,26.60
2019-06-27T16:43:39.735Z,26.50
2019-06-27T16:46:08.954Z,26.50
2019-06-27T16:48:38.097Z,26.50
2019-06-27T16:51:07.525Z,26.40
2019-06-27T16:53:36.725Z,26.40
2019-06-27T16:56:07.125Z,26.30
2019-06-27T16:58:36.276Z,26.30
2019-06-27T17:01:05.555Z,26.30
2019-06-27T17:03:34.758Z,26.30
2019-06-27T17:06:12.609Z,26.30
2019-06-27T17:08:42.210Z,26.30
2019-06-27T17:11:11.285Z,26.30
2019-06-27T17:13:40.390Z,26.30
2019-06-27T17:16:09.547Z,26.30
2019-06-27T17:18:38.715Z,26.30
2019-06-27T17:21:07.858Z,26.30
2019-06-27T17:23:37.081Z,26.20
2019-06-27T17:26:11.390Z,26.20
2019-06-27T17:28:37.272Z,26.20
2019-06-27T17:31:06.552Z,26.10
2019-06-27T17:33:36.152Z,26.10
2019-06-27T17:36:05.376Z,26.10
2019-06-27T17:38:34.507Z,26.00
2019-06-27T17:41:03.608Z,26.00
2019-06-27T17:43:33.094Z,26.00
2019-06-27T17:46:02.280Z,25.90
2019-06-27T17:48:31.302Z,25.90
2019-06-27T17:51:00.470Z,25.80
2019-06-27T17:53:29.840Z,25.80
2019-06-27T17:55:58.996Z,25.80
2019-06-27T17:58:28.130Z,25.70
2019-06-27T18:00:57.233Z,25.70
2019-06-27T18:03:26.429Z,25.70
2019-06-27T18:05:55.424Z,25.60
2019-06-27T18:08:24.660Z,25.60
2019-06-27T18:10:53.739Z,25.60
2019-06-27T18:13:24.103Z,25.50
2019-06-27T18:15:53.276Z,25.50
2019-06-27T18:18:22.395Z,25.40
2019-06-27T18:20:51.476Z,25.30
2019-06-27T18:23:20.498Z,25.30
2019-06-27T18:25:49.529Z,25.20
2019-06-27T18:28:18.880Z,25.10
2019-06-27T18:30:48.079Z,25.10
2019-06-27T18:33:17.220Z,25.00
2019-06-27T18:35:46.407Z,25.00
2019-06-27T18:38:15.455Z,24.90
2019-06-27T18:40:44.550Z,24.80
2019-06-27T18:43:13.698Z,24.70
2019-06-27T18:45:42.873Z,24.60
2019-06-27T18:48:12.266Z,24.50
2019-06-27T18:50:41.468Z,24.40
2019-06-27T18:53:10.638Z,24.20
2019-06-27T18:55:39.723Z,24.10
2019-06-27T18:58:08.875Z,24.00
2019-06-27T19:00:38.137Z,23.80
2019-06-27T19:03:07.417Z,23.70
2019-06-27T19:05:36.595Z,23.60
2019-06-27T19:08:06.045Z,23.40
2019-06-27T19:10:35.124Z,23.30
2019-06-27T19:13:04.215Z,23.20
2019-06-27T19:15:33.328Z,23.10
2019-06-27T19:18:02.485Z,23.00
2019-06-27T19:20:37.535Z,22.90
2019-06-27T19:23:28.536Z,22.70
2019-06-27T19:25:59.800Z,22.60
2019-06-27T19:28:29.179Z,22.50
2019-06-27T19:30:58.298Z,22.40
2019-06-27T19:33:27.444Z,22.30
2019-06-27T19:35:56.644Z,22.20
2019-06-27T19:38:25.987Z,22.10
2019-06-27T19:40:55.156Z,22.00
2019-06-27T19:43:27.999Z,21.90
2019-06-27T19:45:55.177Z,21.80
2019-06-27T19:48:24.328Z,21.70
2019-06-27T19:50:53.439Z,21.50
2019-06-27T19:53:22.459Z,21.50
2019-06-27T19:55:51.664Z,21.30
2019-06-27T19:58:20.798Z,21.30
2019-06-27T20:00:49.918Z,21.20
2019-06-27T20:03:19.071Z,21.10
2019-06-27T20:05:48.199Z,21.10
2019-06-27T20:08:19.525Z,21.00
2019-06-27T20:10:48.103Z,20.90
2019-06-27T20:13:17.207Z,20.90
2019-06-27T20:15:46.339Z,20.80
2019-06-27T20:18:15.556Z,20.80
2019-06-27T20:20:44.696Z,20.70
2019-06-27T20:23:13.994Z,20.70
2019-06-27T20:25:43.215Z,20.60
2019-06-27T20:28:12.384Z,20.60
2019-06-27T20:30:41.596Z,20.50
2019-06-27T20:33:10.687Z,20.40
2019-06-27T20:35:39.900Z,20.40
2019-06-27T20:38:09.037Z,20.30
2019-06-27T20:40:42.150Z,20.20
2019-06-27T20:43:11.450Z,20.20
2019-06-27T20:45:40.672Z,20.10
2019-06-27T20:48:09.896Z,20.10
2019-06-27T20:50:39.119Z,20.00
2019-06-27T20:53:08.466Z,20.00
2019-06-27T20:55:37.672Z,19.90
2019-06-27T20:58:06.751Z,19.90
2019-06-27T21:00:36.207Z,19.90
2019-06-27T21:03:05.582Z,19.80
2019-06-27T21:05:34.840Z,19.80
2019-06-27T21:08:03.950Z,19.70
2019-06-27T21:10:33.127Z,19.70
2019-06-27T21:13:02.251Z,19.60
2019-06-27T21:15:40.289Z,19.60
2019-06-27T21:18:09.391Z,19.50
2019-06-27T21:20:38.596Z,19.50
2019-06-27T21:23:07.897Z,19.40
2019-06-27T21:25:37.118Z,19.40
2019-06-27T21:28:07.296Z,19.30
2019-06-27T21:30:36.603Z,19.30
2019-06-27T21:33:05.768Z,19.30
2019-06-27T21:35:34.867Z,19.20
2019-06-27T21:38:03.992Z,19.20
2019-06-27T21:40:33.193Z,19.20
2019-06-27T21:43:02.350Z,19.10
2019-06-27T21:45:31.519Z,19.10
2019-06-27T21:48:00.622Z,19.00
2019-06-27T21:50:29.815Z,19.00
2019-06-27T21:52:59.074Z,18.90
2019-06-27T21:55:28.595Z,18.80
2019-06-27T21:58:00.010Z,18.70
2019-06-27T22:00:30.642Z,18.60
2019-06-27T22:02:59.904Z,18.60
2019-06-27T22:05:29.059Z,18.60
2019-06-27T22:07:58.257Z,18.50
2019-06-27T22:10:27.488Z,18.50
2019-06-27T22:12:56.591Z,18.40
2019-06-27T22:15:25.787Z,18.40
2019-06-27T22:17:54.954Z,18.30
2019-06-27T22:20:24.236Z,18.20
2019-06-27T22:22:53.394Z,18.20
2019-06-27T22:25:38.823Z,18.20
2019-06-27T22:27:53.344Z,18.10
2019-06-27T22:30:22.563Z,18.10
2019-06-27T22:32:51.643Z,18.00
2019-06-27T22:35:20.852Z,18.00
2019-06-27T22:38:07.891Z,17.90
2019-06-27T22:40:55.004Z,17.90
2019-06-27T22:43:41.877Z,17.80
2019-06-27T22:46:28.946Z,17.70
2019-06-27T22:48:58.963Z,17.70
2019-06-27T22:51:40.012Z,17.60
2019-06-27T22:54:09.836Z,17.60
2019-06-27T22:56:39.028Z,17.50
2019-06-27T22:59:08.378Z,17.40
2019-06-27T23:01:37.499Z,17.40
2019-06-27T23:04:07.427Z,17.30
2019-06-27T23:06:36.787Z,17.20
2019-06-27T23:09:06.243Z,17.20
2019-06-27T23:11:35.420Z,17.10
2019-06-27T23:14:04.597Z,17.10
2019-06-27T23:16:33.608Z,17.10
2019-06-27T23:19:02.633Z,17.00
2019-06-27T23:21:31.737Z,17.00
2019-06-27T23:24:00.839Z,16.90
2019-06-27T23:26:29.958Z,16.90
2019-06-27T23:28:59.271Z,16.90
2019-06-27T23:31:28.467Z,16.80
2019-06-27T23:33:57.499Z,16.80
2019-06-27T23:36:26.609Z,16.80
2019-06-27T23:38:55.708Z,16.80
2019-06-27T23:41:24.820Z,16.70
2019-06-27T23:43:53.979Z,16.70
2019-06-27T23:46:42.437Z,16.60
2019-06-27T23:49:12.194Z,16.60
2019-06-27T23:51:41.597Z,16.50
2019-06-27T23:54:10.763Z,16.40
2019-06-27T23:56:39.930Z,16.40
2019-06-27T23:59:09.377Z,16.40
